createdAt,value
2023-05-08T00:08:48.968Z,84.93
2023-05-08T00:18:53.771Z,84.63
2023-05-08T00:28:56.934Z,84.04
2023-05-08T00:39:00.043Z,84.19
2023-05-08T00:49:05.331Z,84.12
2023-05-08T00:59:10.530Z,83.92
2023-05-08T01:09:13.703Z,84.59
2023-05-08T01:19:38.108Z,85.28
2023-05-08T01:30:00.204Z,85.80
2023-05-08T01:40:20.746Z,85.98
2023-05-08T01:50:33.329Z,86.08
2023-05-08T02:00:40.960Z,85.81
2023-05-08T02:10:46.613Z,85.24
2023-05-08T02:20:51.975Z,84.85
2023-05-08T02:30:56.817Z,84.25
2023-05-08T02:41:03.861Z,83.94
2023-05-08T02:51:29.650Z,83.88
2023-05-08T03:01:48.551Z,83.76
2023-05-08T03:12:10.216Z,84.15
2023-05-08T03:22:16.268Z,84.08
2023-05-08T03:32:21.507Z,83.89
2023-05-08T03:42:26.434Z,83.75
2023-05-08T03:52:30.563Z,84.02
2023-05-08T04:02:57.801Z,83.61
2023-05-08T04:13:10.960Z,83.41
2023-05-08T04:23:22.092Z,83.32
2023-05-08T04:33:27.681Z,83.69
2023-05-08T04:43:31.156Z,83.14
2023-05-08T04:53:34.309Z,82.80
2023-05-08T05:03:38.101Z,82.79
2023-05-08T05:13:41.757Z,82.77
2023-05-08T05:23:44.962Z,82.01
2023-05-08T05:33:48.123Z,81.03
2023-05-08T05:43:51.801Z,80.62
2023-05-08T05:53:55.449Z,80.18
2023-05-08T06:03:59.412Z,79.84
2023-05-08T06:14:02.965Z,78.54
2023-05-08T06:24:07.097Z,78.11
2023-05-08T06:34:10.274Z,77.96
2023-05-08T06:44:13.473Z,78.39
2023-05-08T06:54:16.706Z,78.57
2023-05-08T07:04:20.266Z,78.71
2023-05-08T07:14:23.471Z,78.38
2023-05-08T07:24:26.530Z,78.19
2023-05-08T07:34:29.710Z,77.79
2023-05-08T07:44:43.669Z,76.16
2023-05-08T07:54:53.937Z,75.12
2023-05-08T08:04:57.131Z,73.39
2023-05-08T08:15:00.510Z,72.20
2023-05-08T08:25:03.887Z,71.79
2023-05-08T08:35:07.274Z,71.27
2023-05-08T08:45:11.481Z,69.70
2023-05-08T08:55:20.523Z,68.94
2023-05-08T09:05:26.790Z,69.39
2023-05-08T09:15:33.016Z,67.86
2023-05-08T09:25:43.576Z,67.36
2023-05-08T09:35:50.577Z,67.15
2023-05-08T09:45:53.837Z,66.91
2023-05-08T09:55:57.210Z,66.84
2023-05-08T10:06:13.771Z,65.94
2023-05-08T10:16:18.831Z,65.66
2023-05-08T10:26:27.810Z,62.12
2023-05-08T10:36:31.863Z,61.23
2023-05-08T10:46:49.597Z,62.49
2023-05-08T10:57:08.615Z,63.99
2023-05-08T11:07:11.928Z,63.47
2023-05-08T11:17:23.911Z,63.21
2023-05-08T11:27:33.691Z,62.89
2023-05-08T11:37:38.354Z,62.81
2023-05-08T11:47:43.466Z,62.82
2023-05-08T11:57:46.807Z,60.23
2023-05-08T12:07:52.283Z,59.56
2023-05-08T12:18:03.064Z,59.63
2023-05-08T12:28:07.618Z,59.02
2023-05-08T12:38:12.152Z,58.49
2023-05-08T12:48:15.801Z,57.29
2023-05-08T12:58:20.013Z,58.35
2023-05-08T13:08:37.082Z,58.89
2023-05-08T13:18:40.632Z,58.90
2023-05-08T13:28:44.232Z,58.25
2023-05-08T13:38:48.415Z,57.18
2023-05-08T13:48:52.206Z,56.18
2023-05-08T13:59:03.846Z,57.07
2023-05-08T14:09:12.695Z,56.43
2023-05-08T14:19:25.047Z,56.06
2023-05-08T14:29:34.242Z,55.75
2023-05-08T14:39:37.489Z,56.01
2023-05-08T14:49:40.791Z,56.43
2023-05-08T14:59:52.450Z,55.97
2023-05-08T15:09:58.088Z,55.95
2023-05-08T15:20:01.215Z,55.65
2023-05-08T15:30:05.565Z,55.79
2023-05-08T15:40:09.353Z,55.81
2023-05-08T15:50:12.699Z,57.04
2023-05-08T16:00:16.317Z,57.34
2023-05-08T16:10:19.568Z,57.19
2023-05-08T16:20:23.780Z,56.93
2023-05-08T16:30:27.610Z,58.50
2023-05-08T16:40:31.853Z,59.75
2023-05-08T16:50:34.967Z,59.23
2023-05-08T17:00:38.977Z,59.46
2023-05-08T17:10:44.051Z,59.67
2023-05-08T17:20:47.219Z,60.27
2023-05-08T17:30:52.893Z,60.83
2023-05-08T17:40:56.734Z,61.50
2023-05-08T17:51:02.620Z,62.26
2023-05-08T18:01:06.775Z,63.84
2023-05-08T18:11:21.367Z,65.22
2023-05-08T18:21:24.765Z,65.25
2023-05-08T18:31:28.098Z,66.25
2023-05-08T18:41:31.444Z,67.38
2023-05-08T18:51:34.772Z,67.88
2023-05-08T19:01:37.911Z,68.30
2023-05-08T19:11:41.161Z,69.42
2023-05-08T19:21:45.359Z,70.37
2023-05-08T19:31:48.619Z,70.92
2023-05-08T19:41:51.901Z,71.37
2023-05-08T19:51:55.038Z,71.97
2023-05-08T20:01:59.035Z,72.69
2023-05-08T20:12:02.199Z,73.54
2023-05-08T20:22:05.447Z,74.20
2023-05-08T20:32:08.691Z,74.81
2023-05-08T20:42:12.048Z,75.02
2023-05-08T20:52:15.158Z,76.06
2023-05-08T21:02:18.318Z,76.39
2023-05-08T21:12:21.958Z,76.74
2023-05-08T21:22:25.251Z,77.30
2023-05-08T21:32:28.485Z,77.33
2023-05-08T21:42:32.761Z,77.78
2023-05-08T21:52:36.033Z,78.52
2023-05-08T22:02:39.227Z,79.13
2023-05-08T22:12:43.910Z,79.45
2023-05-08T22:22:47.605Z,79.86
2023-05-08T22:32:57.777Z,79.96
2023-05-08T22:43:01.909Z,79.62
2023-05-08T22:53:08.388Z,80.15
2023-05-08T23:03:13.578Z,80.60
2023-05-08T23:13:16.788Z,80.93
2023-05-08T23:23:19.927Z,80.43
2023-05-08T23:33:23.370Z,80.36
2023-05-08T23:43:27.279Z,80.32
2023-05-08T23:53:30.995Z,80.25
